Oxford, Iowa
Current Conditions -  °F | °C
As of 4:52 PM on Thursday 18 Dec 2014 (Local Time) from KCID Reporting Station
Overcast Overcast  
Wind Chill: 18°   Ceiling: 5500
Heat Index: 24°   Visibility: 8mi
Dew Point: 18°   Wind: 5mph
Humidity: 77%   Direction: 310°NW
Pressure: 30.25"   Gusts: NA
Location:  41.72°N, 91.79°W
Report Text: KCID 182252Z 31004KT 8SM OVC055 M04/M08 A3025 RMK AO2 SLP259 T10441078
Loading
Personal Weather Stations






























Interactive Weather Map New forecast layout! Learn more

10-Day Weather Forecast

Advertisements
Track Severe Weather on mobile